createdAt,value
2023-01-29T00:02:34.076Z,14.14
2023-01-29T00:07:37.032Z,14.08
2023-01-29T00:12:40.116Z,14.06
2023-01-29T00:17:43.303Z,14.01
2023-01-29T00:22:46.474Z,13.93
2023-01-29T00:27:49.650Z,13.82
2023-01-29T00:32:52.684Z,13.81
2023-01-29T00:37:57.026Z,13.74
2023-01-29T00:43:01.681Z,13.72
2023-01-29T00:48:06.553Z,13.71
2023-01-29T00:53:09.916Z,13.71
2023-01-29T00:58:13.190Z,13.64
2023-01-29T01:03:16.796Z,13.58
2023-01-29T01:08:19.943Z,13.53
2023-01-29T01:13:23.173Z,13.47
2023-01-29T01:18:29.269Z,13.48
2023-01-29T01:23:32.665Z,13.52
2023-01-29T01:28:35.957Z,13.53
2023-01-29T01:33:39.862Z,13.50
2023-01-29T01:38:43.282Z,13.48
2023-01-29T01:43:51.395Z,13.47
2023-01-29T01:49:09.886Z,13.47
2023-01-29T01:54:35.375Z,13.43
2023-01-29T01:59:41.154Z,13.47
2023-01-29T02:04:48.784Z,13.49
2023-01-29T02:10:14.399Z,13.46
2023-01-29T02:15:17.893Z,13.43
2023-01-29T02:20:29.077Z,13.40
2023-01-29T02:25:56.832Z,13.38
2023-01-29T02:31:18.380Z,13.34
2023-01-29T02:36:45.152Z,13.30
2023-01-29T02:42:12.754Z,13.30
2023-01-29T02:47:36.807Z,13.34
2023-01-29T02:52:59.966Z,13.34
2023-01-29T02:58:11.973Z,13.33
2023-01-29T03:03:20.910Z,13.34
2023-01-29T03:08:43.020Z,13.33
2023-01-29T03:13:59.761Z,13.33
2023-01-29T03:19:09.815Z,13.33
2023-01-29T03:24:15.954Z,13.31
2023-01-29T03:29:21.830Z,13.34
2023-01-29T03:34:29.692Z,13.33
2023-01-29T03:39:33.033Z,13.28
2023-01-29T03:44:56.420Z,13.22
2023-01-29T03:50:13.537Z,13.15
2023-01-29T03:55:34.338Z,13.09
2023-01-29T04:01:10.761Z,13.03
2023-01-29T04:06:22.448Z,12.99
2023-01-29T04:11:42.040Z,12.99
2023-01-29T04:16:51.108Z,12.99
2023-01-29T04:22:07.482Z,12.91
2023-01-29T04:27:38.868Z,12.88
2023-01-29T04:33:09.521Z,12.86
2023-01-29T04:38:47.604Z,12.85
2023-01-29T04:44:21.931Z,12.88
2023-01-29T04:49:47.033Z,12.92
2023-01-29T04:55:03.724Z,12.93
2023-01-29T05:00:32.185Z,12.91
2023-01-29T05:05:36.557Z,12.95
2023-01-29T05:10:40.041Z,13.04
2023-01-29T05:16:00.675Z,13.09
2023-01-29T05:21:09.995Z,13.18
2023-01-29T05:26:13.246Z,13.23
2023-01-29T05:31:16.623Z,13.32
2023-01-29T05:36:19.972Z,13.41
2023-01-29T05:41:23.380Z,13.49
2023-01-29T05:46:26.657Z,13.60
2023-01-29T05:51:31.233Z,13.70
2023-01-29T05:56:34.935Z,13.82
2023-01-29T06:01:38.054Z,13.94
2023-01-29T06:20:33.002Z,15.23
2023-01-29T06:25:36.607Z,15.38
2023-01-29T06:30:40.046Z,16.15
2023-01-29T06:35:44.196Z,16.90
2023-01-29T06:40:47.265Z,16.82
2023-01-29T06:45:56.636Z,16.48
2023-01-29T06:51:07.451Z,16.20
2023-01-29T06:56:10.639Z,15.96
2023-01-29T07:01:25.353Z,15.79
2023-01-29T07:06:37.182Z,15.70
2023-01-29T07:11:40.809Z,15.82
2023-01-29T07:16:44.123Z,15.88
2023-01-29T07:21:47.257Z,15.83
2023-01-29T07:26:50.373Z,15.83
2023-01-29T07:31:53.700Z,15.89
2023-01-29T07:36:57.282Z,15.99
2023-01-29T07:42:01.355Z,16.18
2023-01-29T07:47:05.051Z,16.54
2023-01-29T07:52:08.421Z,16.75
2023-01-29T07:57:11.821Z,16.67
2023-01-29T08:02:15.347Z,16.65
2023-01-29T08:07:18.669Z,16.72
2023-01-29T08:12:22.432Z,16.77
2023-01-29T08:17:25.650Z,16.66
2023-01-29T08:22:28.581Z,16.62
2023-01-29T08:27:31.656Z,16.70
2023-01-29T08:32:34.813Z,16.70
2023-01-29T08:37:37.853Z,16.65
2023-01-29T08:42:41.359Z,16.71
2023-01-29T08:47:48.036Z,17.05
2023-01-29T08:52:51.287Z,17.25
2023-01-29T08:57:54.609Z,17.32
2023-01-29T09:02:58.102Z,17.26
2023-01-29T09:08:02.268Z,17.23
2023-01-29T09:13:05.669Z,17.35
2023-01-29T09:18:08.988Z,17.39
2023-01-29T09:23:12.047Z,17.35
2023-01-29T09:28:15.144Z,17.35
2023-01-29T09:33:18.351Z,17.43
2023-01-29T09:38:21.502Z,17.56
2023-01-29T09:43:36.802Z,17.57
2023-01-29T09:48:42.391Z,17.58
2023-01-29T09:53:59.915Z,17.71
2023-01-29T09:59:03.225Z,17.59
2023-01-29T10:04:43.055Z,17.38
2023-01-29T10:10:15.622Z,17.13
2023-01-29T10:15:44.909Z,16.84
2023-01-29T10:20:57.167Z,16.78
2023-01-29T10:26:01.091Z,16.76
2023-01-29T10:31:29.186Z,16.71
2023-01-29T10:36:40.573Z,16.79
2023-01-29T10:42:02.348Z,16.95
2023-01-29T10:47:45.165Z,16.94
2023-01-29T10:53:22.330Z,16.75
2023-01-29T10:58:44.972Z,16.82
2023-01-29T11:04:02.322Z,16.70
2023-01-29T11:09:17.580Z,16.68
2023-01-29T11:14:31.948Z,16.83
2023-01-29T11:19:42.866Z,16.85
2023-01-29T11:24:47.096Z,16.75
2023-01-29T11:29:50.929Z,16.74
2023-01-29T11:35:03.736Z,17.03
2023-01-29T11:40:20.102Z,16.95
2023-01-29T11:45:23.650Z,16.86
2023-01-29T11:50:30.954Z,17.04
2023-01-29T11:55:49.933Z,17.09
2023-01-29T12:00:56.953Z,16.95
2023-01-29T12:06:07.477Z,16.85
2023-01-29T12:11:10.726Z,16.68
2023-01-29T12:16:25.798Z,16.65
2023-01-29T12:21:38.966Z,16.66
2023-01-29T12:26:55.557Z,16.64
2023-01-29T12:32:04.328Z,16.59
2023-01-29T12:37:25.959Z,16.53
2023-01-29T12:42:29.634Z,16.51
2023-01-29T12:47:44.344Z,16.69
2023-01-29T12:52:56.601Z,17.02
2023-01-29T12:58:06.110Z,16.86
2023-01-29T13:03:26.466Z,16.61
2023-01-29T13:09:00.698Z,16.51
2023-01-29T13:14:28.886Z,16.48
2023-01-29T13:19:40.425Z,16.45
2023-01-29T13:24:49.952Z,16.32
2023-01-29T13:30:02.316Z,16.24
2023-01-29T13:35:14.234Z,16.21
2023-01-29T13:40:35.977Z,16.19
2023-01-29T13:45:45.301Z,16.10
2023-01-29T13:50:50.756Z,15.99
2023-01-29T13:55:55.442Z,16.02
2023-01-29T14:01:00.561Z,15.99
2023-01-29T14:06:04.019Z,15.95
2023-01-29T14:11:16.465Z,15.99
2023-01-29T14:16:19.581Z,16.02
2023-01-29T14:21:27.403Z,15.96
2023-01-29T14:26:55.930Z,15.89
2023-01-29T14:32:19.071Z,15.87
2023-01-29T14:37:33.178Z,15.87
2023-01-29T14:43:02.589Z,15.83
2023-01-29T14:48:11.707Z,15.75
2023-01-29T14:53:42.181Z,15.70
2023-01-29T14:59:20.700Z,15.62
2023-01-29T15:04:30.597Z,15.58
2023-01-29T15:09:46.753Z,15.50
2023-01-29T15:15:08.008Z,15.39
2023-01-29T15:20:32.413Z,15.32
2023-01-29T15:25:49.114Z,15.29
2023-01-29T15:30:57.514Z,15.27
2023-01-29T15:36:07.413Z,15.27
2023-01-29T15:41:19.992Z,15.24
2023-01-29T15:46:28.921Z,15.24
2023-01-29T15:51:36.841Z,15.21
2023-01-29T15:56:49.117Z,15.20
2023-01-29T16:01:53.937Z,15.19
2023-01-29T16:07:00.634Z,15.16
2023-01-29T16:12:04.845Z,15.09
2023-01-29T16:17:31.068Z,15.05
2023-01-29T16:22:38.427Z,14.99
2023-01-29T16:27:44.479Z,14.88
2023-01-29T16:32:51.244Z,14.79
2023-01-29T16:38:01.388Z,14.76
2023-01-29T16:43:20.726Z,14.75
2023-01-29T16:48:33.614Z,14.76
2023-01-29T16:53:36.958Z,14.75
2023-01-29T16:58:40.731Z,14.79
2023-01-29T17:03:44.499Z,14.82
2023-01-29T17:08:51.266Z,14.82
2023-01-29T17:13:59.721Z,14.73
2023-01-29T17:19:15.330Z,14.66
2023-01-29T17:24:18.619Z,14.59
2023-01-29T17:29:26.873Z,14.54
2023-01-29T17:34:30.205Z,14.53
2023-01-29T17:39:33.489Z,14.52
2023-01-29T17:44:36.704Z,14.49
2023-01-29T17:49:39.658Z,14.49
2023-01-29T17:54:42.922Z,14.53
2023-01-29T17:59:49.898Z,14.51
2023-01-29T18:04:53.492Z,14.52
2023-01-29T18:09:56.698Z,14.53
2023-01-29T18:15:00.816Z,14.49
2023-01-29T18:20:12.839Z,14.50
2023-01-29T18:25:16.914Z,14.49
2023-01-29T18:30:20.447Z,14.45
2023-01-29T18:35:24.218Z,14.42
2023-01-29T18:40:31.695Z,14.39
2023-01-29T18:45:35.603Z,14.37
2023-01-29T18:50:39.026Z,14.31
2023-01-29T18:55:43.638Z,14.25
2023-01-29T19:00:46.667Z,14.25
2023-01-29T19:05:49.998Z,14.23
2023-01-29T19:10:53.445Z,14.22
2023-01-29T19:15:57.148Z,14.29
2023-01-29T19:21:07.012Z,14.36
2023-01-29T19:26:10.705Z,14.31
2023-01-29T19:31:14.093Z,14.31
2023-01-29T19:36:17.395Z,14.27
2023-01-29T19:41:20.651Z,14.23
2023-01-29T19:46:23.807Z,14.15
2023-01-29T19:51:29.138Z,14.06
2023-01-29T19:56:34.687Z,14.06
2023-01-29T20:01:37.985Z,14.07
2023-01-29T20:06:41.287Z,13.97
2023-01-29T20:11:44.630Z,13.98
2023-01-29T20:16:47.645Z,13.96
2023-01-29T20:21:51.409Z,13.99
2023-01-29T20:26:54.376Z,13.98
2023-01-29T20:31:57.572Z,13.94
2023-01-29T20:37:01.083Z,13.89
2023-01-29T20:42:05.703Z,13.84
2023-01-29T20:47:10.322Z,13.74
2023-01-29T20:52:13.608Z,13.67
2023-01-29T20:57:16.768Z,13.63
2023-01-29T21:02:21.111Z,13.59
2023-01-29T21:07:25.689Z,13.69
2023-01-29T21:12:28.984Z,13.73
2023-01-29T21:17:32.238Z,13.73
2023-01-29T21:22:36.145Z,13.73
2023-01-29T21:27:39.523Z,13.73
2023-01-29T21:32:42.478Z,13.72
2023-01-29T21:37:46.430Z,13.70
2023-01-29T21:42:49.686Z,13.73
2023-01-29T21:47:52.791Z,13.76
2023-01-29T21:52:56.484Z,13.78
2023-01-29T21:58:00.612Z,13.75
2023-01-29T22:03:05.297Z,13.69
2023-01-29T22:08:08.511Z,13.65
2023-01-29T22:13:11.996Z,13.60
2023-01-29T22:18:15.513Z,13.55
2023-01-29T22:23:20.034Z,13.57
2023-01-29T22:28:23.796Z,13.62
2023-01-29T22:33:27.174Z,13.65
2023-01-29T22:38:30.904Z,13.64
2023-01-29T22:43:34.243Z,13.60
2023-01-29T22:48:37.429Z,13.81
2023-01-29T22:53:53.944Z,13.86
2023-01-29T22:58:59.428Z,13.90
2023-01-29T23:04:03.890Z,13.88
2023-01-29T23:09:07.019Z,13.91
2023-01-29T23:14:10.177Z,13.79
2023-01-29T23:19:13.146Z,13.70
2023-01-29T23:24:18.729Z,13.61
2023-01-29T23:29:22.008Z,13.60
2023-01-29T23:34:24.994Z,13.53
2023-01-29T23:39:28.217Z,13.41
2023-01-29T23:44:31.359Z,13.38
2023-01-29T23:49:34.490Z,13.35
2023-01-29T23:54:37.642Z,13.36
2023-01-29T23:59:41.246Z,13.39
